createdAt,value
2022-11-18T00:01:22.842Z,4.95
2022-11-18T00:03:51.044Z,5.80
2022-11-18T00:06:20.665Z,4.78
2022-11-18T00:08:48.732Z,3.53
2022-11-18T00:11:36.575Z,5.25
2022-11-18T00:14:22.013Z,4.72
2022-11-18T00:16:57.607Z,4.75
2022-11-18T00:19:37.124Z,4.15
2022-11-18T00:22:06.082Z,3.67
2022-11-18T00:27:01.030Z,5.50
2022-11-18T00:29:28.905Z,3.50
2022-11-18T00:31:57.085Z,4.28
2022-11-18T00:34:25.166Z,5.60
2022-11-18T00:36:52.266Z,6.07
2022-11-18T00:39:20.372Z,6.03
2022-11-18T00:42:07.434Z,5.80
2022-11-18T00:44:35.514Z,5.72
2022-11-18T00:47:03.254Z,6.28
2022-11-18T00:49:30.262Z,5.85
2022-11-18T00:51:57.836Z,4.88
2022-11-18T00:54:24.820Z,6.45
2022-11-18T00:56:52.159Z,5.80
2022-11-18T00:59:19.521Z,7.18
2022-11-18T01:01:47.197Z,6.63
2022-11-18T01:04:14.606Z,6.20
2022-11-18T01:06:41.854Z,5.22
2022-11-18T01:09:08.848Z,5.68
2022-11-18T01:11:54.897Z,5.63
2022-11-18T01:14:24.905Z,6.22
2022-11-18T01:16:57.186Z,6.45
2022-11-18T01:19:25.084Z,6.65
2022-11-18T01:21:52.434Z,7.10
2022-11-18T01:24:19.390Z,6.65
2022-11-18T01:26:46.708Z,7.97
2022-11-18T01:29:13.720Z,5.53
2022-11-18T01:31:55.566Z,8.23
2022-11-18T01:34:29.524Z,6.85
2022-11-18T01:36:58.697Z,7.30
2022-11-18T01:39:26.010Z,7.13
2022-11-18T01:41:53.358Z,7.50
2022-11-18T01:44:51.887Z,6.85
2022-11-18T01:47:20.029Z,7.57
2022-11-18T01:49:47.389Z,8.20
2022-11-18T01:52:15.572Z,7.75
2022-11-18T01:54:48.011Z,7.45
2022-11-18T01:57:20.327Z,7.32
2022-11-18T01:59:50.571Z,7.10
2022-11-18T02:02:18.014Z,7.22
2022-11-18T02:04:49.055Z,7.10
2022-11-18T02:07:17.852Z,6.05
2022-11-18T02:09:45.196Z,6.32
2022-11-18T02:12:14.250Z,4.88
2022-11-18T02:14:46.017Z,5.03
2022-11-18T02:17:31.690Z,6.80
2022-11-18T02:20:25.623Z,5.38
2022-11-18T02:23:28.770Z,4.90
2022-11-18T02:26:33.585Z,4.88
2022-11-18T02:29:18.600Z,6.28
2022-11-18T02:32:00.466Z,6.85
2022-11-18T02:34:46.262Z,7.63
2022-11-18T02:37:22.203Z,7.30
2022-11-18T02:40:05.463Z,6.60
2022-11-18T02:42:35.884Z,6.28
2022-11-18T02:45:09.133Z,7.15
2022-11-18T02:47:38.229Z,7.38
2022-11-18T02:50:16.201Z,4.68
2022-11-18T02:52:45.634Z,7.38
2022-11-18T02:55:15.333Z,7.78
2022-11-18T03:00:11.702Z,6.75
2022-11-18T03:02:47.851Z,7.38
2022-11-18T03:05:24.605Z,6.47
2022-11-18T03:07:56.998Z,7.70
2022-11-18T03:10:28.427Z,8.20
2022-11-18T03:13:49.727Z,7.20
2022-11-18T03:16:30.951Z,5.95
2022-11-18T03:19:10.111Z,7.68
2022-11-18T03:21:49.155Z,7.05
2022-11-18T03:24:24.624Z,8.80
2022-11-18T03:26:59.721Z,8.18
2022-11-18T03:29:33.608Z,7.70
2022-11-18T03:32:10.424Z,6.28
2022-11-18T03:34:49.634Z,5.10
2022-11-18T03:37:21.040Z,7.32
2022-11-18T03:39:54.351Z,7.57
2022-11-18T03:42:38.249Z,8.00
2022-11-18T03:45:22.747Z,6.97
2022-11-18T03:48:03.193Z,6.68
2022-11-18T03:50:36.883Z,7.15
2022-11-18T03:53:06.137Z,8.63
2022-11-18T03:55:39.283Z,7.68
2022-11-18T03:58:47.828Z,7.78
2022-11-18T04:01:50.523Z,7.90
2022-11-18T04:04:18.677Z,6.75
2022-11-18T04:06:55.236Z,7.82
2022-11-18T04:09:29.091Z,7.28
2022-11-18T04:12:03.063Z,6.93
2022-11-18T04:14:42.673Z,7.95
2022-11-18T04:17:18.255Z,6.95
2022-11-18T04:19:46.096Z,7.68
2022-11-18T04:22:15.372Z,6.60
2022-11-18T04:24:42.737Z,6.68
2022-11-18T04:27:09.727Z,7.53
2022-11-18T04:29:37.299Z,6.80
2022-11-18T04:32:05.774Z,6.03
2022-11-18T04:34:33.184Z,6.22
2022-11-18T04:37:00.310Z,6.47
2022-11-18T04:39:27.698Z,5.78
2022-11-18T04:41:57.429Z,6.78
2022-11-18T04:44:30.040Z,6.95
2022-11-18T04:46:58.919Z,6.50
2022-11-18T04:49:28.756Z,7.40
2022-11-18T04:51:57.472Z,7.45
2022-11-18T04:54:26.486Z,10.77
2022-11-18T04:56:55.336Z,13.13
2022-11-18T04:59:26.871Z,12.35
2022-11-18T05:01:55.015Z,10.43
2022-11-18T05:04:28.196Z,8.48
2022-11-18T05:06:55.287Z,9.45
2022-11-18T05:09:34.988Z,9.15
2022-11-18T05:12:20.926Z,7.68
2022-11-18T05:14:50.754Z,6.95
2022-11-18T05:17:19.234Z,8.00
2022-11-18T05:19:46.650Z,7.10
2022-11-18T05:22:16.496Z,9.38
2022-11-18T05:24:46.139Z,9.80
2022-11-18T05:29:43.455Z,8.50
2022-11-18T05:32:10.787Z,9.50
2022-11-18T05:34:40.501Z,8.45
2022-11-18T05:37:09.988Z,7.57
2022-11-18T05:39:38.618Z,8.57
2022-11-18T05:42:24.732Z,9.95
2022-11-18T05:45:45.243Z,10.98
2022-11-18T05:48:12.496Z,10.45
2022-11-18T05:50:40.316Z,10.90
2022-11-18T05:53:07.759Z,12.65
2022-11-18T05:56:03.005Z,10.70
2022-11-18T05:58:33.086Z,11.65
2022-11-18T06:01:05.743Z,10.95
2022-11-18T06:03:41.036Z,8.95
2022-11-18T06:06:10.944Z,9.70
2022-11-18T06:08:44.964Z,10.75
2022-11-18T06:11:17.655Z,10.23
2022-11-18T06:14:11.116Z,10.90
2022-11-18T06:16:41.155Z,10.82
2022-11-18T06:19:08.382Z,12.20
2022-11-18T06:21:37.401Z,11.77
2022-11-18T06:24:04.863Z,11.20
2022-11-18T06:26:33.258Z,12.80
2022-11-18T06:29:00.360Z,12.13
2022-11-18T06:34:14.827Z,10.32
2022-11-18T06:36:56.904Z,9.65
2022-11-18T06:39:25.830Z,9.15
2022-11-18T06:41:56.744Z,9.85
2022-11-18T06:44:25.252Z,9.50
2022-11-18T06:46:58.495Z,10.52
2022-11-18T06:49:28.765Z,10.88
2022-11-18T06:51:55.846Z,8.63
2022-11-18T06:54:26.923Z,8.80
2022-11-18T06:56:54.233Z,9.80
2022-11-18T06:59:27.076Z,10.93
2022-11-18T07:01:55.052Z,9.88
2022-11-18T07:07:12.537Z,11.27
2022-11-18T07:09:40.063Z,8.27
2022-11-18T07:12:07.793Z,7.78
2022-11-18T07:14:35.518Z,9.48
2022-11-18T07:17:05.216Z,8.68
2022-11-18T07:19:36.550Z,7.28
2022-11-18T07:22:05.162Z,7.30
2022-11-18T07:24:32.723Z,10.10
2022-11-18T07:27:02.308Z,6.75
2022-11-18T07:29:30.176Z,7.22
2022-11-18T07:31:57.441Z,8.52
2022-11-18T07:34:24.994Z,7.78
2022-11-18T07:36:52.069Z,8.60
2022-11-18T07:39:19.849Z,6.03
2022-11-18T07:41:50.132Z,7.78
2022-11-18T07:44:17.673Z,6.45
2022-11-18T07:47:06.622Z,7.07
2022-11-18T07:49:36.701Z,7.93
2022-11-18T07:52:04.954Z,7.45
2022-11-18T07:54:32.741Z,6.93
2022-11-18T07:57:05.251Z,7.93
2022-11-18T07:59:48.275Z,9.43
2022-11-18T08:02:16.126Z,7.75
2022-11-18T08:04:44.221Z,8.52
2022-11-18T08:07:23.547Z,8.65
2022-11-18T08:09:55.130Z,7.38
2022-11-18T08:12:25.200Z,7.50
2022-11-18T08:14:52.300Z,7.68
2022-11-18T08:17:23.563Z,8.13
2022-11-18T08:19:51.322Z,9.27
2022-11-18T08:22:21.163Z,9.00
2022-11-18T08:24:48.170Z,7.32
2022-11-18T08:27:15.574Z,8.13
2022-11-18T08:29:42.568Z,7.55
2022-11-18T08:32:13.233Z,8.13
2022-11-18T08:34:42.999Z,8.05
2022-11-18T08:37:10.835Z,8.50
2022-11-18T08:42:33.909Z,8.15
2022-11-18T08:45:03.020Z,8.85
2022-11-18T08:47:32.942Z,7.93
2022-11-18T08:52:45.725Z,7.28
2022-11-18T08:55:16.782Z,6.53
2022-11-18T08:57:49.909Z,7.00
2022-11-18T09:00:20.093Z,7.22
2022-11-18T09:02:49.127Z,8.23
2022-11-18T09:05:16.163Z,7.55
2022-11-18T09:07:43.672Z,7.55
2022-11-18T09:10:10.763Z,7.50
2022-11-18T09:12:38.178Z,7.45
2022-11-18T09:15:13.417Z,8.50
2022-11-18T09:17:42.269Z,8.45
2022-11-18T09:20:22.868Z,8.48
2022-11-18T09:22:50.288Z,8.30
2022-11-18T09:25:17.689Z,9.45
2022-11-18T09:27:52.429Z,8.32
2022-11-18T09:30:20.735Z,8.55
2022-11-18T09:32:48.463Z,8.25
2022-11-18T09:35:15.953Z,8.10
2022-11-18T09:37:43.034Z,4.80
2022-11-18T09:40:19.544Z,8.30
2022-11-18T09:43:05.016Z,8.20
2022-11-18T09:45:41.369Z,8.10
2022-11-18T09:48:42.495Z,3.92
2022-11-18T09:51:12.054Z,7.53
2022-11-18T09:53:43.135Z,8.05
2022-11-18T09:56:16.060Z,7.50
2022-11-18T09:58:47.270Z,7.28
2022-11-18T10:01:20.006Z,6.63
2022-11-18T10:03:47.514Z,8.43
2022-11-18T10:06:34.265Z,6.53
2022-11-18T10:09:23.132Z,7.10
2022-11-18T10:12:23.913Z,6.63
2022-11-18T10:15:01.111Z,6.97
2022-11-18T10:17:46.788Z,7.22
2022-11-18T10:20:49.273Z,6.68
2022-11-18T10:23:58.824Z,6.80
2022-11-18T10:26:38.351Z,6.65
2022-11-18T10:29:12.384Z,5.60
2022-11-18T10:32:04.186Z,7.80
2022-11-18T10:34:55.340Z,6.53
2022-11-18T10:38:00.730Z,7.28
2022-11-18T10:40:27.763Z,5.88
2022-11-18T10:42:54.925Z,4.30
2022-11-18T10:45:32.859Z,4.25
2022-11-18T10:48:15.249Z,5.75
2022-11-18T10:50:47.242Z,5.85
2022-11-18T10:53:32.984Z,6.43
2022-11-18T10:56:16.121Z,4.07
2022-11-18T10:58:46.708Z,5.70
2022-11-18T11:01:24.540Z,7.55
2022-11-18T11:03:58.556Z,7.35
2022-11-18T11:06:33.450Z,6.63
2022-11-18T11:09:26.769Z,7.55
2022-11-18T11:12:19.072Z,6.75
2022-11-18T11:15:07.348Z,8.55
2022-11-18T11:17:39.452Z,7.40
2022-11-18T11:20:25.532Z,4.75
2022-11-18T11:22:54.721Z,9.55
2022-11-18T11:28:42.138Z,7.68
2022-11-18T11:31:44.838Z,6.25
2022-11-18T11:34:16.526Z,8.98
2022-11-18T11:36:49.329Z,8.32
2022-11-18T11:39:42.215Z,6.15
2022-11-18T11:42:23.726Z,7.13
2022-11-18T11:45:05.897Z,7.75
2022-11-18T11:48:06.351Z,7.28
2022-11-18T11:51:01.873Z,5.57
2022-11-18T11:53:55.219Z,9.23
2022-11-18T11:56:58.437Z,6.55
2022-11-18T12:02:51.347Z,9.02
2022-11-18T12:05:34.193Z,8.18
2022-11-18T12:08:15.828Z,6.25
2022-11-18T12:10:49.215Z,8.57
2022-11-18T12:13:22.165Z,8.10
2022-11-18T12:16:15.522Z,9.35
2022-11-18T12:19:07.664Z,8.75
2022-11-18T12:21:47.144Z,8.75
2022-11-18T12:24:20.794Z,8.23
2022-11-18T12:26:50.905Z,7.45
2022-11-18T12:29:21.353Z,8.57
2022-11-18T12:31:51.705Z,9.32
2022-11-18T12:34:39.625Z,8.90
2022-11-18T12:37:25.556Z,8.15
2022-11-18T12:39:55.552Z,8.88
2022-11-18T12:43:03.235Z,7.97
2022-11-18T12:45:42.751Z,9.05
2022-11-18T12:51:41.920Z,7.70
2022-11-18T12:54:44.255Z,7.80
2022-11-18T12:57:31.182Z,7.28
2022-11-18T13:00:15.322Z,7.10
2022-11-18T13:02:55.285Z,8.15
2022-11-18T13:05:34.361Z,6.88
2022-11-18T13:08:15.765Z,4.28
2022-11-18T13:10:54.897Z,8.07
2022-11-18T13:13:32.910Z,7.10
2022-11-18T13:16:37.959Z,7.47
2022-11-18T13:19:06.223Z,6.97
2022-11-18T13:22:05.505Z,4.85
2022-11-18T13:24:52.494Z,6.40
2022-11-18T13:27:38.709Z,5.55
2022-11-18T13:30:18.258Z,6.53
2022-11-18T13:32:47.751Z,6.55
2022-11-18T13:35:18.482Z,6.18
2022-11-18T13:37:56.872Z,7.55
2022-11-18T13:40:31.580Z,7.90
2022-11-18T13:42:59.076Z,6.80
2022-11-18T13:45:30.626Z,8.25
2022-11-18T13:48:09.707Z,8.25
2022-11-18T13:50:57.361Z,6.60
2022-11-18T13:53:46.666Z,8.30
2022-11-18T13:56:27.064Z,7.28
2022-11-18T13:59:20.666Z,8.70
2022-11-18T14:01:55.284Z,7.97
2022-11-18T14:04:25.587Z,5.22
2022-11-18T14:06:52.673Z,7.75
2022-11-18T14:09:33.519Z,9.50
2022-11-18T14:12:22.257Z,8.57
2022-11-18T14:14:50.403Z,9.20
2022-11-18T14:17:17.677Z,7.22
2022-11-18T14:19:47.447Z,8.80
2022-11-18T14:22:27.898Z,8.82
2022-11-18T14:24:56.595Z,8.75
2022-11-18T14:27:38.764Z,9.30
2022-11-18T14:30:28.148Z,10.43
2022-11-18T14:33:24.452Z,8.00
2022-11-18T14:35:56.347Z,10.50
2022-11-18T14:39:19.199Z,10.10
2022-11-18T14:44:35.728Z,10.05
2022-11-18T14:47:17.983Z,10.38
2022-11-18T14:49:45.327Z,9.55
2022-11-18T14:52:12.943Z,10.48
2022-11-18T14:54:40.350Z,10.55
2022-11-18T14:57:14.221Z,10.02
2022-11-18T14:59:41.478Z,9.63
2022-11-18T15:02:17.837Z,8.77
2022-11-18T15:04:45.099Z,8.98
2022-11-18T15:07:20.083Z,10.15
2022-11-18T15:09:50.875Z,9.77
2022-11-18T15:12:18.381Z,10.95
2022-11-18T15:17:46.485Z,10.18
2022-11-18T15:20:25.380Z,9.43
2022-11-18T15:22:52.426Z,9.02
2022-11-18T15:25:19.876Z,7.30
2022-11-18T15:27:47.009Z,7.78
2022-11-18T15:30:15.783Z,7.07
2022-11-18T15:32:43.635Z,8.32
2022-11-18T15:35:12.908Z,7.50
2022-11-18T15:37:40.785Z,8.43
2022-11-18T15:40:08.674Z,6.70
2022-11-18T15:42:45.024Z,9.55
2022-11-18T15:45:14.995Z,11.57
2022-11-18T15:47:42.074Z,7.13
2022-11-18T15:50:09.897Z,15.55
2022-11-18T15:52:37.028Z,13.48
2022-11-18T15:55:08.026Z,15.68
2022-11-18T15:57:35.280Z,14.38
2022-11-18T16:00:08.812Z,14.50
2022-11-18T16:02:36.290Z,10.15
2022-11-18T16:05:06.240Z,11.05
2022-11-18T16:07:34.574Z,8.00
2022-11-18T16:10:24.583Z,11.80
2022-11-18T16:12:55.797Z,7.65
2022-11-18T16:15:44.423Z,9.00
2022-11-18T16:18:29.176Z,12.18
2022-11-18T16:21:00.931Z,15.38
2022-11-18T16:23:28.493Z,11.57
2022-11-18T16:25:55.900Z,12.02
2022-11-18T16:28:27.449Z,10.80
2022-11-18T16:33:51.521Z,9.40
2022-11-18T16:36:28.059Z,10.77
2022-11-18T16:38:58.305Z,11.43
2022-11-18T16:41:33.172Z,9.57
2022-11-18T16:44:03.594Z,7.50
2022-11-18T16:46:33.483Z,8.70
2022-11-18T16:49:00.967Z,8.30
2022-11-18T16:51:31.786Z,10.48
2022-11-18T16:54:01.449Z,8.88
2022-11-18T16:56:37.488Z,8.70
2022-11-18T16:59:07.956Z,11.70
2022-11-18T17:01:40.767Z,10.25
2022-11-18T17:04:13.155Z,8.32
2022-11-18T17:06:41.986Z,10.30
2022-11-18T17:09:20.751Z,8.48
2022-11-18T17:11:53.699Z,9.70
2022-11-18T17:14:24.251Z,8.98
2022-11-18T17:16:55.438Z,6.45
2022-11-18T17:19:24.898Z,9.07
2022-11-18T17:21:53.485Z,7.97
2022-11-18T17:24:42.249Z,7.05
2022-11-18T17:27:09.896Z,6.57
2022-11-18T17:29:38.854Z,10.13
2022-11-18T17:32:10.124Z,8.10
2022-11-18T17:34:41.230Z,8.55
2022-11-18T17:37:25.622Z,11.23
2022-11-18T17:39:53.991Z,7.45
2022-11-18T17:42:23.432Z,7.38
2022-11-18T17:44:54.628Z,7.10
2022-11-18T17:47:21.555Z,12.05
2022-11-18T17:49:48.906Z,9.43
2022-11-18T17:52:19.728Z,10.57
2022-11-18T18:00:03.706Z,11.95
2022-11-18T18:02:31.270Z,12.73
2022-11-18T18:07:51.494Z,12.40
2022-11-18T18:13:26.312Z,12.57
2022-11-18T18:16:06.069Z,9.45
2022-11-18T18:18:35.213Z,10.90
2022-11-18T18:21:02.530Z,9.75
2022-11-18T18:26:13.891Z,13.85
2022-11-18T18:31:35.488Z,8.50
2022-11-18T18:36:56.310Z,13.30
2022-11-18T18:39:26.344Z,7.97
2022-11-18T18:41:56.222Z,8.40
2022-11-18T18:44:50.769Z,8.30
2022-11-18T18:47:24.561Z,10.20
2022-11-18T18:49:52.675Z,9.13
2022-11-18T18:52:21.726Z,12.15
2022-11-18T18:54:58.127Z,8.52
2022-11-18T18:57:25.135Z,8.90
2022-11-18T18:59:59.678Z,10.18
2022-11-18T19:02:31.484Z,8.98
2022-11-18T19:05:04.182Z,10.27
2022-11-18T19:07:33.763Z,12.93
2022-11-18T19:10:05.515Z,9.60
2022-11-18T19:12:53.347Z,13.10
2022-11-18T19:15:27.032Z,14.90
2022-11-18T19:17:58.398Z,14.63
2022-11-18T19:20:45.078Z,14.32
2022-11-18T19:23:15.357Z,15.57
2022-11-18T19:29:07.330Z,16.73
2022-11-18T19:31:42.491Z,13.77
2022-11-18T19:34:14.808Z,14.77
2022-11-18T19:36:42.791Z,15.02
2022-11-18T19:39:10.026Z,15.68
2022-11-18T19:41:40.339Z,14.95
2022-11-18T19:44:13.642Z,15.35
2022-11-18T19:46:50.229Z,14.02
2022-11-18T19:49:21.838Z,10.65
2022-11-18T19:52:04.380Z,12.25
2022-11-18T20:00:20.657Z,13.50
2022-11-18T20:02:54.938Z,10.95
2022-11-18T20:05:47.476Z,13.52
2022-11-18T20:09:34.575Z,10.68
2022-11-18T20:30:56.614Z,17.90
2022-11-18T20:33:25.478Z,14.27
2022-11-18T20:35:54.235Z,17.77
2022-11-18T20:38:22.459Z,18.77
2022-11-18T20:40:49.827Z,18.52
2022-11-18T20:43:17.254Z,21.80
2022-11-18T20:45:53.032Z,16.85
2022-11-18T20:48:22.252Z,15.68
2022-11-18T20:53:45.002Z,16.67
2022-11-18T20:56:17.120Z,13.00
2022-11-18T20:58:50.643Z,15.93
2022-11-18T21:01:20.432Z,14.80
2022-11-18T21:03:52.859Z,13.70
2022-11-18T21:06:23.316Z,15.60
2022-11-18T21:09:03.908Z,17.00
2022-11-18T21:11:37.761Z,20.98
2022-11-18T21:14:23.288Z,20.58
2022-11-18T21:16:55.471Z,19.40
2022-11-18T21:19:23.848Z,18.30
2022-11-18T21:21:52.853Z,20.33
2022-11-18T21:24:34.628Z,19.83
2022-11-18T21:27:06.938Z,22.05
2022-11-18T21:29:34.974Z,21.10
2022-11-18T21:32:16.523Z,20.40
2022-11-18T21:37:11.970Z,13.40
2022-11-18T21:39:41.791Z,20.20
2022-11-18T21:42:09.284Z,14.02
2022-11-18T21:44:39.634Z,13.82
2022-11-18T21:47:06.594Z,14.77
2022-11-18T21:49:36.449Z,22.08
2022-11-18T21:52:03.479Z,19.58
2022-11-18T21:54:37.622Z,21.85
2022-11-18T21:57:14.719Z,20.95
2022-11-18T21:59:42.024Z,19.35
2022-11-18T22:02:15.254Z,18.75
2022-11-18T22:04:54.949Z,19.88
2022-11-18T22:07:25.617Z,22.92
2022-11-18T22:09:55.235Z,19.70
2022-11-18T22:12:22.237Z,28.80
2022-11-18T22:14:50.501Z,22.15
2022-11-18T22:17:17.612Z,18.20
2022-11-18T22:19:45.016Z,23.27
2022-11-18T22:22:12.794Z,23.33
2022-11-18T22:24:40.691Z,21.17
2022-11-18T22:27:11.329Z,23.52
2022-11-18T22:29:38.950Z,22.80
2022-11-18T22:32:05.952Z,22.08
2022-11-18T22:34:33.649Z,19.48
2022-11-18T22:37:01.043Z,21.95
2022-11-18T22:39:28.441Z,23.13
2022-11-18T22:42:14.491Z,22.95
2022-11-18T22:44:41.738Z,23.75
2022-11-18T22:47:09.462Z,22.08
2022-11-18T22:49:36.416Z,22.65
2022-11-18T22:52:03.766Z,22.17
2022-11-18T22:54:38.988Z,19.38
2022-11-18T22:57:09.005Z,21.02
2022-11-18T22:59:36.132Z,17.33
2022-11-18T23:02:03.533Z,14.90
2022-11-18T23:04:30.594Z,19.15
2022-11-18T23:06:57.886Z,21.80
2022-11-18T23:09:24.978Z,20.58
2022-11-18T23:12:11.002Z,21.38
2022-11-18T23:14:38.049Z,20.75
2022-11-18T23:17:05.631Z,21.65
2022-11-18T23:19:33.062Z,19.77
2022-11-18T23:22:00.406Z,22.90
2022-11-18T23:24:27.340Z,17.30
2022-11-18T23:26:55.048Z,18.92
2022-11-18T23:29:23.227Z,20.38
2022-11-18T23:31:50.660Z,14.88
2022-11-18T23:34:17.668Z,22.63
2022-11-18T23:39:26.430Z,14.23
2022-11-18T23:41:54.312Z,15.98
2022-11-18T23:44:42.603Z,16.45
2022-11-18T23:47:10.295Z,18.60
2022-11-18T23:49:37.294Z,18.95
2022-11-18T23:52:09.446Z,14.90
2022-11-18T23:54:36.417Z,18.60
2022-11-18T23:57:05.410Z,16.63
2022-11-18T23:59:32.816Z,18.08
